Terminal Aerodrome Forecast
Issued by NWS

Home | Current Version | Previous Version | Text Only | Print | Product List | Glossary On
Versions: 1 2 3 4 5 6 7 8 9 10 11 12 13 14
000
FTUS44 KBMX 052340
TAFEET
TAF
KEET 052340Z 0600/0624 09006KT P6SM -RA OVC004
      TEMPO 0600/0602 SCT004 BKN050 OVC100
     FM060600 12008KT 3SM -RA BR VCTS OVC003CB
     FM061000 19009KT 6SM -DZ BR OVC003
     FM061400 23009KT 6SM -DZ OVC012
     FM062100 28009KT P6SM OVC015=

USA.gov is the U.S. government's official web portal to all federal, state and local government web resources and services.